This is the latest recevied weather packets stored in our database for station/object N4AN. If no packets are shown the sender has not sent any weather packets the latest 10 day(s).
| Time | Temp. | Humidity | Pressure | Rain* | Wind** | Luminosity | Snow |
|---|---|---|---|---|---|---|---|
| 1787658562 | 28.89° C | 74% | 1011.7 hPa | 0 mm | - | - | - |
| 1787658262 | 30° C | 73% | 1011.6 hPa | 0 mm | - | - | - |
| 1787657962 | 30° C | 73% | 1011.7 hPa | 0 mm | - | - | - |
| 1787657661 | 30.56° C | 72% | 1011.7 hPa | 0 mm | - | - | - |
| 1787657361 | 30.56° C | 71% | 1011.5 hPa | 0 mm | - | - | - |
| 1787657054 | 30.56° C | 72% | 1011.5 hPa | 0 mm | - | - | - |
| 1787656754 | 30° C | 74% | 1011.7 hPa | 0 mm | - | - | - |
| 1787656454 | 29.44° C | 73% | 1011.6 hPa | 0 mm | - | - | - |
| 1787656153 | 30° C | 70% | 1011.6 hPa | 0 mm | - | - | - |
| 1787655853 | 28.89° C | 73% | 1011.6 hPa | 0 mm | - | - | - |
| 1787655553 | 30° C | 69% | 1011.5 hPa | 0 mm | - | - | - |
| 1787655251 | 30° C | 68% | 1011.5 hPa | 0 mm | - | - | - |
| 1787654950 | 30° C | 68% | 1011.6 hPa | 0 mm | - | - | - |
| 1787654650 | 30° C | 68% | 1011.5 hPa | 0 mm | - | - | - |
| 1787654350 | 30.56° C | 71% | 1011.5 hPa | 0 mm | - | - | - |
| 1787654050 | 30.56° C | 72% | 1011.3 hPa | 0 mm | - | - | - |
| 1787653749 | 30.56° C | 75% | 1011.3 hPa | 0 mm | - | - | - |
| 1787653449 | 31.11° C | 74% | 1011.3 hPa | 0 mm | - | - | - |
| 1787653149 | 31.11° C | 74% | 1011.2 hPa | 0 mm | - | - | - |
| 1787652848 | 31.11° C | 73% | 1011.1 hPa | 0 mm | - | - | - |
| 1787652547 | 31.11° C | 74% | 1011.1 hPa | 0 mm | - | - | - |
| 1787652247 | 31.11° C | 74% | 1011 hPa | 0 mm | - | - | - |
| 1787651947 | 31.11° C | 75% | 1011 hPa | 0 mm | - | - | - |
| 1787651646 | 31.11° C | 74% | 1010.8 hPa | 0 mm | - | - | - |
| 1787651345 | 30.56° C | 74% | 1010.8 hPa | 0 mm | - | - | - |
* Rain latest hour (hover to see other rain measurements)
** Current wind speed in m/s (hover to see current wind gust speed)